Strona główna
METAR-TAF:

METAR-TAF

Lotnisko :

Port lotniczy Kaduna

Kaduna, Nigeria

Szerokość geograficzna: 10-36N, Długość geograficzna: 007-27E, wysokość: 645 m

Aktualna obserwacja pogody

Raport powstał 10 godziny i 44 minut temu, godzina 16:00 UTC
Wiatr 5 kt od zachód
Temperatura 35°C
Wilgotność 34%
Ciśnienie 1011 hPa
Widzialność 10 km lub więcej
Mało chmury na wysokości 1200 ft

METAR: DNKA 051600Z 26005KT 9999 FEW012 35/17 Q1011

czas: 03:44 (02:44 UTC)

Prognoza

Raport powstał 9 godziny i 44 minut temu, godzina 17:00 UTC
Prognoza ważna od 05 godzina 18 UTC do 06 godzina 24 UTC
Wiatr 5 kt od zachód
Widzialność 10 km lub więcej
Mało chmury na wysokości 1200 ft
Stopniowe zmiany
od 05 godzina 20 UTC do 05 godzina 22 UTC
Wiatr 10 kt od południowy wschód

TAF: DNKA 051700Z 0518/0624 26005KT 9999 FEW012 BECMG 0520/0522 14010KT

Obserwacja i prognoza pogody dla ponad 4000 lotnisk (raport METAR i TAF).

Dostępne stacje oznaczono żółtymi i czerwonymi punktami na mapie.

Najedź kursorem aby zobaczyć nazwę stacji.

Kliknij aby zobaczyć obserwacje i prognozy pogody.

Aby zmienić mapę: kliknij na zielony przycisk z czarnym krzyżykiem, aby powiększyć; na zielony przycisk z myślnikiem, aby pomniejszyć; na zielone strzałki, aby przejść do map sąsiednich.


METAR-TAF: